Mr Chester — WDF2686 — position and weather

sailwx.info

Track history (hours):
 
Tides and Currents Weather Stations Pressure Air Temp Water Temp Dewpoint Dewpoint Depression Visibility Wind Speed Wind Dir Waves Ship Positions

Mr Chester

Owner: Marquette Transportation Company Offshore LLC, Jefferson, LA. More information available from US FCC via Universal Licensing System and Coast Guard Vessel Documentation Center.

Last reported at 2018-Apr-25 06:30 UTC. Time now 2018-Apr-25 06:43 UTC.
Position N 32°01' W 080°54'.

Length 22 m; draft 3 m.

Type: . MMSI: 367430730.

Date/timePositionNaut miles runAvg speedWind from/ knotsBaromVisibWave heightAir tempDewpointWater temp
2018-Apr-25 06:30N 32°01' W 080°54'0 0.0
2018-Apr-25 06:00N 32°01' W 080°54'0 0.0
2018-Apr-25 05:29N 32°01' W 080°54'0 0.0
2018-Apr-25 05:00N 32°01' W 080°54'0 0.0
2018-Apr-25 04:30N 32°01' W 080°54'0 0.0
2018-Apr-25 04:00N 32°01' W 080°54'0 0.0
2018-Apr-25 03:30N 32°01' W 080°54'0 0.0
2018-Apr-25 03:00N 32°01' W 080°54'0 0.0
2018-Apr-25 02:30N 32°01' W 080°54'0 0.0
2018-Apr-25 02:00N 32°01' W 080°54'0 0.0
2018-Apr-25 01:30N 32°01' W 080°54'0 0.0
2018-Apr-25 01:00N 32°01' W 080°54'0 0.0
2018-Apr-25 00:30N 32°01' W 080°54'0 0.0
2018-Apr-25 00:00N 32°01' W 080°54'0 0.0
2018-Apr-24 23:30N 32°01' W 080°54'0 0.8
2018-Apr-24 23:00N 32°01' W 080°53'2 3.4
2018-Apr-24 22:30N 32°02' W 080°51'2 4.5
2018-Apr-24 22:00N 32°02' W 080°54'2 4.9
2018-Apr-24 21:30N 32°03' W 080°56'2 4.7
2018-Apr-24 21:00N 32°05' W 080°59'2 4.3
2018-Apr-24 20:30N 32°06' W 081°01'2 4.1
2018-Apr-24 20:00N 32°05' W 081°03'2 4.2
2018-Apr-24 19:30N 32°05' W 081°05'1 2.5
2018-Apr-24 19:00N 32°06' W 081°06'0 0.0
2018-Apr-24 18:30N 32°06' W 081°06'0 0.0
2018-Apr-24 17:59N 32°06' W 081°06'0 0.0
2018-Apr-24 17:30N 32°06' W 081°06'0 0.0
2018-Apr-24 17:00N 32°06' W 081°06'2 3.3
2018-Apr-24 16:30N 32°05' W 081°05'3 5.1
2018-Apr-24 16:00N 32°05' W 081°02'2 3.9
2018-Apr-24 15:30N 32°06' W 080°60'2 4.0
2018-Apr-24 15:00N 32°04' W 080°58'2 3.8
2018-Apr-24 14:30N 32°03' W 080°56'2 3.1
2018-Apr-24 14:00N 32°02' W 080°55'1 2.9
2018-Apr-24 13:30N 32°02' W 080°53'2 2.7
2018-Apr-24 12:57N 32°02' W 080°51'2 4.8
2018-Apr-24 12:30N 32°01' W 080°53'0 0.5
2018-Apr-24 12:00N 32°01' W 080°54'0 0.0
2018-Apr-24 11:30N 32°01' W 080°54'0 0.0
2018-Apr-24 11:00N 32°01' W 080°54'0 0.0
2018-Apr-24 10:30N 32°01' W 080°54'0 0.0
2018-Apr-24 10:00N 32°01' W 080°54'0 0.0
2018-Apr-24 09:30N 32°01' W 080°54'0 0.0
2018-Apr-24 09:00N 32°01' W 080°54'0 0.0
2018-Apr-24 08:30N 32°01' W 080°54'0 0.0
2018-Apr-24 08:00N 32°01' W 080°54'0 0.0
2018-Apr-24 07:30N 32°01' W 080°54'0 0.0
2018-Apr-24 07:00N 32°01' W 080°54'0 0.0
2018-Apr-24 06:30N 32°01' W 080°54'0 0.0
2018-Apr-24 06:00N 32°01' W 080°54'0 0.0
2018-Apr-24 05:30N 32°01' W 080°54'0 0.0
2018-Apr-24 05:00N 32°01' W 080°54'0 0.0
2018-Apr-24 04:30N 32°01' W 080°54'0 0.0
2018-Apr-24 04:00N 32°01' W 080°54'0 0.0
2018-Apr-24 03:30N 32°01' W 080°54'0 0.0
2018-Apr-24 03:00N 32°01' W 080°54'0 0.0
2018-Apr-24 02:30N 32°01' W 080°54'0 0.0
2018-Apr-24 02:00N 32°01' W 080°54'0 0.0
2018-Apr-24 01:30N 32°01' W 080°54'0 0.0
2018-Apr-24 01:00N 32°01' W 080°54'0 0.0
2018-Apr-24 00:30N 32°01' W 080°54'0 0.0
2018-Apr-24 00:00N 32°01' W 080°54'0 0.0
2018-Apr-23 23:30N 32°01' W 080°54'0 0.0
2018-Apr-23 22:59N 32°01' W 080°54'0 0.0
2018-Apr-23 22:30N 32°01' W 080°54'0 0.0
2018-Apr-23 22:00N 32°01' W 080°54'0 0.0
2018-Apr-23 21:30N 32°01' W 080°54'0 0.0
2018-Apr-23 21:00N 32°01' W 080°54'0 0.0
2018-Apr-23 20:30N 32°01' W 080°54'0 0.0
2018-Apr-23 20:00N 32°01' W 080°54'0 0.0
2018-Apr-23 19:30N 32°01' W 080°54'0 0.0
2018-Apr-23 18:59N 32°01' W 080°54'0 0.0
2018-Apr-23 18:30N 32°01' W 080°54'0 0.0
2018-Apr-23 18:00N 32°01' W 080°54'0 0.0
2018-Apr-23 17:30N 32°01' W 080°54'0 0.0
2018-Apr-23 17:00N 32°01' W 080°54'0 0.0
2018-Apr-23 16:30N 32°01' W 080°54'0 0.0
2018-Apr-23 16:00N 32°01' W 080°54'0 0.0
2018-Apr-23 15:30N 32°01' W 080°54'0 0.0
2018-Apr-23 15:00N 32°01' W 080°54'0 0.0
2018-Apr-23 14:30N 32°01' W 080°54'0 0.0
2018-Apr-23 14:00N 32°01' W 080°54'0 0.0
2018-Apr-23 13:30N 32°01' W 080°54'0 0.0
2018-Apr-23 13:00N 32°01' W 080°54'0 0.0
2018-Apr-23 12:30N 32°01' W 080°54'0 0.0
2018-Apr-23 12:00N 32°01' W 080°54'0 0.0
2018-Apr-23 11:30N 32°01' W 080°54'0 0.0
2018-Apr-23 11:00N 32°01' W 080°54'0 0.0
2018-Apr-23 10:30N 32°01' W 080°54'0 0.0
2018-Apr-23 10:00N 32°01' W 080°54'0 0.0
2018-Apr-23 09:30N 32°01' W 080°54'0 0.0
2018-Apr-23 08:59N 32°01' W 080°54'0 0.0
2018-Apr-23 08:28N 32°01' W 080°54'0 0.0
2018-Apr-23 08:00N 32°01' W 080°54'0 0.0
2018-Apr-23 07:30N 32°01' W 080°54'0 0.0
2018-Apr-23 07:00N 32°01' W 080°54'0 0.0
2018-Apr-23 06:30N 32°01' W 080°54'0 0.0
2018-Apr-23 06:00N 32°01' W 080°54'0 0.0
2018-Apr-23 05:30N 32°01' W 080°54'0 0.0
2018-Apr-23 05:00N 32°01' W 080°54'0 0.0
2018-Apr-23 04:30N 32°01' W 080°54'0 0.0
2018-Apr-23 04:00N 32°01' W 080°54'0 0.0
2018-Apr-23 03:30N 32°01' W 080°54'0 0.0
2018-Apr-23 03:00N 32°01' W 080°54'0 0.0
2018-Apr-23 02:30N 32°01' W 080°54'0 0.0
2018-Apr-23 02:00N 32°01' W 080°54'0 0.0
2018-Apr-23 01:30N 32°01' W 080°54'0 0.0
2018-Apr-23 01:00N 32°01' W 080°54'0 0.0
2018-Apr-23 00:30N 32°01' W 080°54'0 0.0
2018-Apr-23 00:00N 32°01' W 080°54'0 0.0
2018-Apr-22 23:01N 32°01' W 080°54'0 0.0
2018-Apr-22 22:59N 32°01' W 080°54'0 0.0
2018-Apr-22 22:27N 32°01' W 080°54'0 0.0
2018-Apr-22 22:00N 32°01' W 080°54'0 0.0
2018-Apr-22 21:30N 32°01' W 080°54'0 0.0
2018-Apr-22 21:00N 32°01' W 080°54'0 0.0
2018-Apr-22 20:30N 32°01' W 080°54'0 0.0
2018-Apr-22 19:51N 32°01' W 080°54'0 0.0
2018-Apr-22 19:29N 32°01' W 080°54'0 0.0
2018-Apr-22 19:00N 32°01' W 080°54'0 0.0
2018-Apr-22 18:30N 32°01' W 080°54'0 0.0
2018-Apr-22 18:00N 32°01' W 080°54'0 0.0
2018-Apr-22 17:30N 32°01' W 080°54'0 0.0
2018-Apr-22 17:00N 32°01' W 080°54'0 0.0
2018-Apr-22 16:30N 32°01' W 080°54'0 0.0
2018-Apr-22 15:57N 32°01' W 080°54'0 0.0
2018-Apr-22 15:30N 32°01' W 080°54'0 0.0
2018-Apr-22 15:00N 32°01' W 080°54'0 0.0
2018-Apr-22 14:29N 32°01' W 080°54'0 0.0
2018-Apr-22 14:00N 32°01' W 080°54'0 0.0
2018-Apr-22 13:30N 32°01' W 080°54'0 0.0
2018-Apr-22 13:00N 32°01' W 080°54'0 0.0
2018-Apr-22 12:30N 32°01' W 080°54'0 0.0
2018-Apr-22 11:59N 32°01' W 080°54'0 0.7
2018-Apr-22 11:29N 32°01' W 080°53'0 0.0
2018-Apr-22 11:00N 32°01' W 080°53'0 0.0
2018-Apr-22 10:30N 32°01' W 080°53'0 0.0
2018-Apr-22 09:59N 32°01' W 080°53'0 0.0
2018-Apr-22 09:30N 32°01' W 080°53'0 0.0
2018-Apr-22 09:00N 32°01' W 080°53'0 0.0
2018-Apr-22 08:30N 32°01' W 080°53'0 0.0
2018-Apr-22 08:00N 32°01' W 080°53'0 0.0
2018-Apr-22 07:30N 32°01' W 080°53'0 0.0
2018-Apr-22 07:00N 32°01' W 080°53'0 0.0
2018-Apr-22 06:30N 32°01' W 080°53'0 0.0
2018-Apr-22 06:00N 32°01' W 080°53'0 0.0
2018-Apr-22 05:30N 32°01' W 080°53'0 0.0
2018-Apr-22 05:00N 32°01' W 080°53'0 0.0
2018-Apr-22 04:30N 32°01' W 080°53'0 0.0
2018-Apr-22 04:00N 32°01' W 080°53'0 0.0
2018-Apr-22 03:30N 32°01' W 080°53'0 0.0
2018-Apr-22 02:58N 32°01' W 080°53'0 0.0
2018-Apr-22 02:30N 32°01' W 080°53'0 0.0
2018-Apr-22 01:59N 32°01' W 080°53'0 0.0
2018-Apr-22 01:30N 32°01' W 080°53'0 0.0
2018-Apr-22 01:00N 32°01' W 080°53'0 0.0
2018-Apr-22 00:30N 32°01' W 080°53'0 0.0
2018-Apr-22 00:00N 32°01' W 080°53'0 0.0
2018-Apr-21 23:30N 32°01' W 080°53'0 0.0
2018-Apr-21 23:00N 32°01' W 080°53'0 0.0
2018-Apr-21 22:30N 32°01' W 080°53'0 0.0
2018-Apr-21 22:00N 32°01' W 080°53'0 0.0
2018-Apr-21 21:30N 32°01' W 080°53'0 0.0
2018-Apr-21 21:00N 32°01' W 080°53'0 0.0
2018-Apr-21 20:30N 32°01' W 080°53'0 0.0
2018-Apr-21 20:00N 32°01' W 080°53'0 0.0
2018-Apr-21 19:30N 32°01' W 080°53'0 0.0
2018-Apr-21 19:00N 32°01' W 080°53'0 0.0
2018-Apr-21 18:30N 32°01' W 080°53'0 0.0
2018-Apr-21 18:00N 32°01' W 080°53'0 0.0
2018-Apr-21 17:30N 32°01' W 080°53'0 0.0
2018-Apr-21 17:00N 32°01' W 080°53'0 0.0
2018-Apr-21 16:30N 32°01' W 080°53'0 0.0
2018-Apr-21 16:00N 32°01' W 080°53'0 0.0
2018-Apr-21 15:30N 32°01' W 080°53'0 0.5
2018-Apr-21 15:00N 32°01' W 080°54'0 0.2
2018-Apr-21 14:30N 32°01' W 080°53'0 0.1
2018-Apr-21 14:00N 32°01' W 080°53'0 0.3
2018-Apr-21 13:30N 32°01' W 080°53'0 0.1
2018-Apr-21 13:00N 32°01' W 080°53'0 0.0
2018-Apr-21 12:30N 32°01' W 080°53'0 0.0
2018-Apr-21 12:00N 32°01' W 080°53'0 0.0
2018-Apr-21 11:30N 32°01' W 080°53'0 0.0
2018-Apr-21 11:00N 32°01' W 080°53'0 0.0
2018-Apr-21 10:30N 32°01' W 080°53'0 0.0
2018-Apr-21 10:00N 32°01' W 080°53'0 0.0
2018-Apr-21 09:30N 32°01' W 080°53'0 0.0
2018-Apr-21 08:58N 32°01' W 080°53'0 0.0
2018-Apr-21 08:30N 32°01' W 080°53'0 0.0
2018-Apr-21 07:59N 32°01' W 080°53'0 0.0
2018-Apr-21 07:30N 32°01' W 080°53'0 0.0
2018-Apr-21 07:00N 32°01' W 080°53'0 0.0
2018-Apr-21 06:30N 32°01' W 080°53'0 0.0
2018-Apr-21 06:00N 32°01' W 080°53'0 0.0
2018-Apr-21 05:30N 32°01' W 080°53'0 0.0
2018-Apr-21 05:00N 32°01' W 080°53'0 0.0
2018-Apr-21 04:30N 32°01' W 080°53'2 4.8
2018-Apr-21 04:00N 32°02' W 080°51'4 7.0
2018-Apr-21 03:30N 31°60' W 080°47'2 3.8
2018-Apr-21 03:00N 32°01' W 080°49'2 3.6
2018-Apr-21 02:30N 32°02' W 080°50'1 1.9
2018-Apr-21 02:00N 32°02' W 080°51'1 1.8
2018-Apr-21 01:30N 32°01' W 080°52'1 1.2
2018-Apr-21 01:00N 32°01' W 080°53'0 0.8
2018-Apr-21 00:30N 32°01' W 080°53'2 4.2
2018-Apr-21 00:00N 32°02' W 080°51'2 4.8
2018-Apr-20 23:30N 32°02' W 080°54'3 6.0
2018-Apr-20 23:00N 32°04' W 080°57'3 6.6
2018-Apr-20 22:30N 32°06' W 080°60'3 6.8
2018-Apr-20 22:00N 32°05' W 081°04'2 4.9
2018-Apr-20 21:30N 32°06' W 081°01'3 6.0
2018-Apr-20 21:00N 32°04' W 080°58'3 6.1
2018-Apr-20 20:30N 32°02' W 080°55'3 6.4
2018-Apr-20 19:58N 32°02' W 080°51'2 4.3
2018-Apr-20 19:30N 32°01' W 080°53'0 0.0
2018-Apr-20 19:00N 32°01' W 080°53'0 0.0
2018-Apr-20 18:30N 32°01' W 080°53'0 0.0
2018-Apr-20 18:00N 32°01' W 080°53'0 0.0
2018-Apr-20 17:30N 32°01' W 080°53'0 0.0
2018-Apr-20 16:59N 32°01' W 080°53'0 0.0
2018-Apr-20 16:30N 32°01' W 080°53'0 0.0
2018-Apr-20 16:00N 32°01' W 080°53'0 0.0
2018-Apr-20 15:30N 32°01' W 080°53'0 0.0
2018-Apr-20 15:00N 32°01' W 080°53'0 0.0
2018-Apr-20 14:30N 32°01' W 080°53'0 0.0
2018-Apr-20 13:59N 32°01' W 080°53'0 0.0
2018-Apr-20 13:30N 32°01' W 080°53'0 0.0
2018-Apr-20 13:00N 32°01' W 080°53'0 0.0
2018-Apr-20 12:30N 32°01' W 080°53'0 0.0
2018-Apr-20 12:00N 32°01' W 080°53'0 0.0
2018-Apr-20 11:30N 32°01' W 080°53'0 0.0
2018-Apr-20 11:00N 32°01' W 080°53'0 0.0
2018-Apr-20 10:30N 32°01' W 080°53'0 0.0
2018-Apr-20 10:00N 32°01' W 080°53'0 0.0
2018-Apr-20 09:30N 32°01' W 080°53'0 0.0
2018-Apr-20 09:00N 32°01' W 080°53'0 0.0
2018-Apr-20 08:30N 32°01' W 080°53'0 0.0
2018-Apr-20 08:00N 32°01' W 080°53'0 0.0
2018-Apr-20 07:30N 32°01' W 080°53'0 0.0
2018-Apr-20 07:00N 32°01' W 080°53'0 0.0
2018-Apr-20 06:30N 32°01' W 080°53'0 0.0
2018-Apr-20 06:00N 32°01' W 080°53'0 0.0
2018-Apr-20 05:30N 32°01' W 080°53'0 0.0
2018-Apr-20 05:00N 32°01' W 080°53'0 0.0
2018-Apr-20 04:30N 32°01' W 080°53'0 0.0
2018-Apr-20 04:00N 32°01' W 080°53'0 0.0
2018-Apr-20 03:30N 32°01' W 080°53'0 0.0
2018-Apr-20 03:00N 32°01' W 080°53'0 0.0
2018-Apr-20 02:30N 32°01' W 080°53'0 0.0
2018-Apr-20 02:00N 32°01' W 080°53'0 0.0
2018-Apr-20 01:30N 32°01' W 080°53'0 0.0
2018-Apr-20 01:00N 32°01' W 080°53'0 0.0
2018-Apr-20 00:30N 32°01' W 080°53'0 0.0
2018-Apr-20 00:00N 32°01' W 080°53'0 0.0
2018-Apr-19 23:30N 32°01' W 080°53'0 0.0
2018-Apr-19 23:00N 32°01' W 080°53'0 0.0
2018-Apr-19 22:30N 32°01' W 080°53'0 0.0
2018-Apr-19 22:00N 32°01' W 080°53'0 0.0
2018-Apr-19 21:30N 32°01' W 080°53'0 0.0
2018-Apr-19 21:00N 32°01' W 080°53'0 0.0
2018-Apr-19 20:30N 32°01' W 080°53'0 0.0
2018-Apr-19 20:00N 32°01' W 080°53'0 0.0
2018-Apr-19 19:30N 32°01' W 080°53'0 0.0
2018-Apr-19 19:00N 32°01' W 080°53'0 0.1
2018-Apr-19 18:30N 32°01' W 080°53'0 0.0
2018-Apr-19 18:00N 32°01' W 080°53'0 0.0
2018-Apr-19 17:30N 32°01' W 080°53'0 0.0
2018-Apr-19 17:00N 32°01' W 080°53'0 0.0
2018-Apr-19 16:30N 32°01' W 080°53'0 0.0
2018-Apr-19 16:00N 32°01' W 080°53'2 3.8
2018-Apr-19 15:30N 32°02' W 080°51'2 3.7
2018-Apr-19 15:00N 32°02' W 080°49'0 0.3
2018-Apr-19 14:30N 32°02' W 080°49'2 3.7
2018-Apr-19 14:00N 32°02' W 080°51'0 0.8
2018-Apr-19 13:30N 32°02' W 080°52'0 0.0
2018-Apr-19 13:00N 32°02' W 080°52'1 2.1
2018-Apr-19 12:24N 32°02' W 080°50'3 6.0
2018-Apr-19 11:59N 32°00' W 080°48'2 3.2
2018-Apr-19 11:30N 32°02' W 080°49'2 3.4
2018-Apr-19 11:00N 32°02' W 080°51'1 1.2
2018-Apr-19 10:30N 32°02' W 080°52'0 0.0
2018-Apr-19 09:59N 32°02' W 080°52'0 0.0
2018-Apr-19 09:30N 32°02' W 080°52'0 0.0
2018-Apr-19 09:00N 32°02' W 080°52'0 0.0
2018-Apr-19 08:30N 32°02' W 080°52'0 0.0
2018-Apr-19 07:59N 32°02' W 080°52'0 0.0
2018-Apr-19 07:28N 32°02' W 080°52'0 0.0
2018-Apr-19 06:59N 32°02' W 080°52'0 0.0
2018-Apr-19 06:30N 32°02' W 080°52'0 0.0
2018-Apr-19 06:00N 32°02' W 080°52'0 0.0
2018-Apr-19 05:30N 32°02' W 080°52'0 0.0
2018-Apr-19 05:00N 32°02' W 080°52'0 0.1
2018-Apr-19 04:30N 32°02' W 080°52'0 0.0
2018-Apr-19 04:00N 32°02' W 080°52'0 0.0
2018-Apr-19 03:30N 32°02' W 080°52'0 0.0
2018-Apr-19 02:59N 32°02' W 080°52'0 0.0
2018-Apr-19 02:30N 32°02' W 080°52'0 0.0
2018-Apr-19 02:00N 32°02' W 080°52'0 0.0
2018-Apr-19 01:28N 32°02' W 080°52'0 0.0
2018-Apr-19 01:00N 32°02' W 080°52'0 0.0
2018-Apr-19 00:30N 32°02' W 080°52'0 0.0
2018-Apr-19 00:00N 32°02' W 080°52'2 3.9
2018-Apr-18 23:30N 32°02' W 080°49'1 2.2
2018-Apr-18 23:00N 32°02' W 080°51'1 1.6
2018-Apr-18 22:30N 32°02' W 080°51'0 0.0
2018-Apr-18 22:00N 32°02' W 080°51'0 0.0
2018-Apr-18 20:50N 32°02' W 080°51'0 0.1
2018-Apr-18 19:01N 32°02' W 080°51'0 2.6
2018-Apr-18 19:00N 32°02' W 080°51'1 2.3
2018-Apr-18 18:30N 32°02' W 080°50'1 2.7
2018-Apr-18 18:00N 32°01' W 080°48'2 3.6
2018-Apr-18 17:30N 31°60' W 080°47'2 3.5
2018-Apr-18 16:56N 31°59' W 080°45'1 3.2
2018-Apr-18 16:30N 31°59' W 080°47'2 4.9
2018-Apr-18 16:00N 32°01' W 080°49'2 4.5
2018-Apr-18 15:30N 32°02' W 080°51'0 0.7
2018-Apr-18 15:00N 32°02' W 080°51'0 0.0
2018-Apr-18 14:30N 32°02' W 080°51'0 0.0
2018-Apr-18 14:00N 32°02' W 080°51'0 0.0
2018-Apr-18 13:30N 32°02' W 080°51'0 0.0
2018-Apr-18 13:00N 32°02' W 080°51'1 3.0
2018-Apr-18 12:30N 32°02' W 080°50'3 5.5
2018-Apr-18 12:00N 32°00' W 080°48'4 5.1
2018-Apr-18 11:18N 31°58' W 080°44'1 2.4
2018-Apr-18 10:59N 31°59' W 080°45'0 0.6
2018-Apr-18 10:30N 31°59' W 080°45'7 0.9
2018-Apr-18 03:04N 31°57' W 080°37'0 1.5
2018-Apr-18 02:59N 31°57' W 080°37'2 0.4
2018-Apr-17 21:35N 31°57' W 080°40'1 3.1
2018-Apr-17 21:14N 31°58' W 080°41'1 4.1
2018-Apr-17 21:00N 31°58' W 080°42'1 1.8
2018-Apr-17 20:13N 31°58' W 080°44'0 0.0
2018-Apr-17 19:06N 31°58' W 080°44'0 1.2
2018-Apr-17 19:00N 31°58' W 080°44'0 0.1
2018-Apr-17 18:05N 31°58' W 080°44'1 3.9
2018-Apr-17 17:55N 31°58' W 080°44'2 4.8
2018-Apr-17 17:30N 31°59' W 080°46'3 6.3
2018-Apr-17 17:00N 32°01' W 080°49'2 3.9
2018-Apr-17 16:30N 32°02' W 080°51'2 3.5
2018-Apr-17 15:58N 32°01' W 080°53'0 0.0
2018-Apr-17 15:30N 32°01' W 080°53'0 0.0
2018-Apr-17 14:56N 32°01' W 080°53'1 1.9
2018-Apr-17 14:25N 32°01' W 080°52'3 6.5
2018-Apr-17 14:00N 32°01' W 080°49'3 4.8
2018-Apr-17 13:27N 31°59' W 080°50'2 3.7
2018-Apr-17 12:58N 31°59' W 080°48'2 5.0
2018-Apr-17 12:30N 32°01' W 080°49'2 3.5
2018-Apr-17 12:00N 32°02' W 080°51'2 4.2
2018-Apr-17 11:30N 32°01' W 080°53'0 0.2
2018-Apr-17 11:00N 32°01' W 080°53'0 0.0
2018-Apr-17 10:30N 32°01' W 080°53'0 0.0
2018-Apr-17 10:00N 32°01' W 080°53'0 0.0
2018-Apr-17 09:30N 32°01' W 080°53'0 0.0
2018-Apr-17 09:00N 32°01' W 080°53'0 0.0
2018-Apr-17 08:30N 32°01' W 080°53'0 0.0
2018-Apr-17 07:57N 32°01' W 080°53'0 0.0
2018-Apr-17 07:30N 32°01' W 080°53'0 0.0
2018-Apr-17 07:00N 32°01' W 080°53'0 0.0
2018-Apr-17 06:30N 32°01' W 080°53'0 0.0
2018-Apr-17 06:00N 32°01' W 080°53'0 0.0
2018-Apr-17 05:30N 32°01' W 080°53'0 0.0
2018-Apr-17 05:00N 32°01' W 080°53'0 0.0
2018-Apr-17 04:30N 32°01' W 080°53'0 0.0
2018-Apr-17 04:00N 32°01' W 080°53'0 0.0
2018-Apr-17 03:20N 32°01' W 080°53'0 0.0
2018-Apr-17 03:00N 32°01' W 080°53'0 0.0
2018-Apr-17 02:30N 32°01' W 080°53'0 0.0
2018-Apr-17 02:00N 32°01' W 080°53'0 0.0
2018-Apr-17 01:30N 32°01' W 080°53'0 0.0
2018-Apr-17 01:00N 32°01' W 080°53'0 0.0
2018-Apr-17 00:30N 32°01' W 080°53'0 0.0
2018-Apr-17 00:00N 32°01' W 080°53'0 0.0
2018-Apr-16 23:30N 32°01' W 080°53'0 0.0
2018-Apr-16 23:00N 32°01' W 080°53'0 0.0
2018-Apr-16 22:28N 32°01' W 080°53'0 0.0
2018-Apr-16 22:00N 32°01' W 080°53'0 0.0
2018-Apr-16 21:30N 32°01' W 080°53'0 0.0
2018-Apr-16 21:00N 32°01' W 080°53'0 0.0
2018-Apr-16 20:30N 32°01' W 080°53'0 0.0
2018-Apr-16 19:58N 32°01' W 080°53'0 0.0
2018-Apr-16 19:29N 32°01' W 080°53'0 0.0
2018-Apr-16 19:00N 32°01' W 080°53'0 0.0
2018-Apr-16 18:29N 32°01' W 080°53'0 0.0
2018-Apr-16 17:55N 32°01' W 080°53'0 0.0
2018-Apr-16 17:30N 32°01' W 080°53'0 0.0
2018-Apr-16 16:59N 32°01' W 080°53'0 0.0
2018-Apr-16 16:30N 32°01' W 080°53'0 0.0
2018-Apr-16 16:00N 32°01' W 080°53'0 0.0
2018-Apr-16 15:28N 32°01' W 080°53'0 0.0
2018-Apr-16 15:00N 32°01' W 080°53'0 0.0
2018-Apr-16 14:26N 32°01' W 080°53'0 0.0
2018-Apr-16 13:59N 32°01' W 080°53'0 0.0
2018-Apr-16 13:29N 32°01' W 080°53'0 0.0
2018-Apr-16 12:50N 32°01' W 080°53'0 0.0
2018-Apr-16 12:30N 32°01' W 080°53'0 0.0
2018-Apr-16 12:00N 32°01' W 080°53'0 0.0
2018-Apr-16 11:30N 32°01' W 080°53'0 0.0
2018-Apr-16 11:00N 32°01' W 080°53'0 0.0
2018-Apr-16 10:30N 32°01' W 080°53'0 0.0
2018-Apr-16 10:00N 32°01' W 080°53'0 0.0
2018-Apr-16 09:30N 32°01' W 080°53'0 0.0
2018-Apr-16 09:00N 32°01' W 080°53'0 0.0
2018-Apr-16 08:30N 32°01' W 080°53'0 0.0
2018-Apr-16 08:00N 32°01' W 080°53'0 0.0
2018-Apr-16 07:30N 32°01' W 080°53'0 0.0
2018-Apr-16 06:59N 32°01' W 080°53'0 0.2
2018-Apr-16 06:30N 32°01' W 080°53'0 0.2
2018-Apr-16 05:59N 32°01' W 080°53'0 0.0
2018-Apr-16 05:30N 32°01' W 080°53'0 0.0
2018-Apr-16 04:59N 32°01' W 080°53'0 0.0
2018-Apr-16 04:29N 32°01' W 080°53'0 0.0
2018-Apr-16 03:59N 32°01' W 080°53'0 0.0
2018-Apr-16 03:30N 32°01' W 080°53'0 0.0
2018-Apr-16 03:00N 32°01' W 080°53'0 0.0
2018-Apr-16 02:30N 32°01' W 080°53'0 0.0
2018-Apr-16 01:58N 32°01' W 080°53'0 0.0
2018-Apr-16 01:30N 32°01' W 080°53'0 0.0
2018-Apr-16 01:00N 32°01' W 080°53'0 0.0
2018-Apr-16 00:30N 32°01' W 080°53'0 0.0
2018-Apr-15 23:59N 32°01' W 080°53'0 0.0
2018-Apr-15 23:28N 32°01' W 080°53'0 0.0
2018-Apr-15 23:00N 32°01' W 080°53'0 0.0
2018-Apr-15 22:30N 32°01' W 080°53'0 0.0
2018-Apr-15 21:59N 32°01' W 080°53'0 0.0
2018-Apr-15 21:30N 32°01' W 080°53'0 0.0
2018-Apr-15 21:00N 32°01' W 080°53'0 0.0
2018-Apr-15 20:30N 32°01' W 080°53'0 0.0
2018-Apr-15 20:00N 32°01' W 080°53'0 0.0
2018-Apr-15 19:28N 32°01' W 080°53'0 0.0
2018-Apr-15 19:00N 32°01' W 080°53'0 0.0
2018-Apr-15 18:30N 32°01' W 080°53'0 0.0
2018-Apr-15 17:59N 32°01' W 080°53'0 0.0
2018-Apr-15 17:29N 32°01' W 080°53'0 0.0
2018-Apr-15 17:00N 32°01' W 080°53'0 0.0
2018-Apr-15 16:30N 32°01' W 080°53'0 0.0
2018-Apr-15 15:17N 32°01' W 080°53'0 0.0
2018-Apr-15 14:47N 32°01' W 080°53'0 0.0
2018-Apr-15 14:30N 32°01' W 080°53'0 0.0
2018-Apr-15 13:58N 32°01' W 080°53'0 0.0
2018-Apr-15 13:30N 32°01' W 080°53'0 0.0
2018-Apr-15 12:59N 32°01' W 080°53'0 0.0
2018-Apr-15 12:30N 32°01' W 080°53'0 0.0
2018-Apr-15 12:00N 32°01' W 080°53'0 0.0
2018-Apr-15 11:30N 32°01' W 080°53'0 0.0
2018-Apr-15 11:00N 32°01' W 080°53'0 0.0
2018-Apr-15 10:30N 32°01' W 080°53'0 0.0
2018-Apr-15 10:00N 32°01' W 080°53'0 0.0
2018-Apr-15 09:30N 32°01' W 080°53'0 0.3
2018-Apr-15 09:00N 32°01' W 080°53'1 2.7
2018-Apr-15 08:30N 32°01' W 080°52'2 4.1
2018-Apr-15 08:00N 32°02' W 080°49'3 5.8
2018-Apr-15 07:30N 31°59' W 080°48'1 1.3
2018-Apr-15 07:00N 31°59' W 080°48'1 1.8
2018-Apr-15 06:30N 31°59' W 080°49'  
Track history (hours):
 
Tides and Currents Weather Stations Pressure Air Temp Water Temp Dewpoint Dewpoint Depression Visibility Wind Speed Wind Dir Waves Ship Positions

Mr Chester

Owner: Marquette Transportation Company Offshore LLC, Jefferson, LA. More information available from US FCC via Universal Licensing System and Coast Guard Vessel Documentation Center.

Last reported at 2018-Apr-25 06:30 UTC. Time now 2018-Apr-25 06:43 UTC.
Position N 32°01' W 080°54'.

Length 22 m; draft 3 m.

Type: . MMSI: 367430730.

Date/timePositionNaut miles runAvg speedWind from/ knotsBaromVisibWave heightAir tempDewpointWater temp
2018-Apr-25 06:30N 32°01' W 080°54'0 0.0
2018-Apr-25 06:00N 32°01' W 080°54'0 0.0
2018-Apr-25 05:29N 32°01' W 080°54'0 0.0
2018-Apr-25 05:00N 32°01' W 080°54'0 0.0
2018-Apr-25 04:30N 32°01' W 080°54'0 0.0
2018-Apr-25 04:00N 32°01' W 080°54'0 0.0
2018-Apr-25 03:30N 32°01' W 080°54'0 0.0
2018-Apr-25 03:00N 32°01' W 080°54'0 0.0
2018-Apr-25 02:30N 32°01' W 080°54'0 0.0
2018-Apr-25 02:00N 32°01' W 080°54'0 0.0
2018-Apr-25 01:30N 32°01' W 080°54'0 0.0
2018-Apr-25 01:00N 32°01' W 080°54'0 0.0
2018-Apr-25 00:30N 32°01' W 080°54'0 0.0
2018-Apr-25 00:00N 32°01' W 080°54'0 0.0
2018-Apr-24 23:30N 32°01' W 080°54'0 0.8
2018-Apr-24 23:00N 32°01' W 080°53'2 3.4
2018-Apr-24 22:30N 32°02' W 080°51'2 4.5
2018-Apr-24 22:00N 32°02' W 080°54'2 4.9
2018-Apr-24 21:30N 32°03' W 080°56'2 4.7
2018-Apr-24 21:00N 32°05' W 080°59'2 4.3
2018-Apr-24 20:30N 32°06' W 081°01'2 4.1
2018-Apr-24 20:00N 32°05' W 081°03'2 4.2
2018-Apr-24 19:30N 32°05' W 081°05'1 2.5
2018-Apr-24 19:00N 32°06' W 081°06'0 0.0
2018-Apr-24 18:30N 32°06' W 081°06'0 0.0
2018-Apr-24 17:59N 32°06' W 081°06'0 0.0
2018-Apr-24 17:30N 32°06' W 081°06'0 0.0
2018-Apr-24 17:00N 32°06' W 081°06'2 3.3
2018-Apr-24 16:30N 32°05' W 081°05'3 5.1
2018-Apr-24 16:00N 32°05' W 081°02'2 3.9
2018-Apr-24 15:30N 32°06' W 080°60'2 4.0
2018-Apr-24 15:00N 32°04' W 080°58'2 3.8
2018-Apr-24 14:30N 32°03' W 080°56'2 3.1
2018-Apr-24 14:00N 32°02' W 080°55'1 2.9
2018-Apr-24 13:30N 32°02' W 080°53'2 2.7
2018-Apr-24 12:57N 32°02' W 080°51'2 4.8
2018-Apr-24 12:30N 32°01' W 080°53'0 0.5
2018-Apr-24 12:00N 32°01' W 080°54'0 0.0
2018-Apr-24 11:30N 32°01' W 080°54'0 0.0
2018-Apr-24 11:00N 32°01' W 080°54'0 0.0
2018-Apr-24 10:30N 32°01' W 080°54'0 0.0
2018-Apr-24 10:00N 32°01' W 080°54'0 0.0
2018-Apr-24 09:30N 32°01' W 080°54'0 0.0
2018-Apr-24 09:00N 32°01' W 080°54'0 0.0
2018-Apr-24 08:30N 32°01' W 080°54'0 0.0
2018-Apr-24 08:00N 32°01' W 080°54'0 0.0
2018-Apr-24 07:30N 32°01' W 080°54'0 0.0
2018-Apr-24 07:00N 32°01' W 080°54'0 0.0
2018-Apr-24 06:30N 32°01' W 080°54'0 0.0
2018-Apr-24 06:00N 32°01' W 080°54'0 0.0
2018-Apr-24 05:30N 32°01' W 080°54'0 0.0
2018-Apr-24 05:00N 32°01' W 080°54'0 0.0
2018-Apr-24 04:30N 32°01' W 080°54'0 0.0
2018-Apr-24 04:00N 32°01' W 080°54'0 0.0
2018-Apr-24 03:30N 32°01' W 080°54'0 0.0
2018-Apr-24 03:00N 32°01' W 080°54'0 0.0
2018-Apr-24 02:30N 32°01' W 080°54'0 0.0
2018-Apr-24 02:00N 32°01' W 080°54'0 0.0
2018-Apr-24 01:30N 32°01' W 080°54'0 0.0
2018-Apr-24 01:00N 32°01' W 080°54'0 0.0
2018-Apr-24 00:30N 32°01' W 080°54'0 0.0
2018-Apr-24 00:00N 32°01' W 080°54'0 0.0
2018-Apr-23 23:30N 32°01' W 080°54'0 0.0
2018-Apr-23 22:59N 32°01' W 080°54'0 0.0
2018-Apr-23 22:30N 32°01' W 080°54'0 0.0
2018-Apr-23 22:00N 32°01' W 080°54'0 0.0
2018-Apr-23 21:30N 32°01' W 080°54'0 0.0
2018-Apr-23 21:00N 32°01' W 080°54'0 0.0
2018-Apr-23 20:30N 32°01' W 080°54'0 0.0
2018-Apr-23 20:00N 32°01' W 080°54'0 0.0
2018-Apr-23 19:30N 32°01' W 080°54'0 0.0
2018-Apr-23 18:59N 32°01' W 080°54'0 0.0
2018-Apr-23 18:30N 32°01' W 080°54'0 0.0
2018-Apr-23 18:00N 32°01' W 080°54'0 0.0
2018-Apr-23 17:30N 32°01' W 080°54'0 0.0
2018-Apr-23 17:00N 32°01' W 080°54'0 0.0
2018-Apr-23 16:30N 32°01' W 080°54'0 0.0
2018-Apr-23 16:00N 32°01' W 080°54'0 0.0
2018-Apr-23 15:30N 32°01' W 080°54'0 0.0
2018-Apr-23 15:00N 32°01' W 080°54'0 0.0
2018-Apr-23 14:30N 32°01' W 080°54'0 0.0
2018-Apr-23 14:00N 32°01' W 080°54'0 0.0
2018-Apr-23 13:30N 32°01' W 080°54'0 0.0
2018-Apr-23 13:00N 32°01' W 080°54'0 0.0
2018-Apr-23 12:30N 32°01' W 080°54'0 0.0
2018-Apr-23 12:00N 32°01' W 080°54'0 0.0
2018-Apr-23 11:30N 32°01' W 080°54'0 0.0
2018-Apr-23 11:00N 32°01' W 080°54'0 0.0
2018-Apr-23 10:30N 32°01' W 080°54'0 0.0
2018-Apr-23 10:00N 32°01' W 080°54'0 0.0
2018-Apr-23 09:30N 32°01' W 080°54'0 0.0
2018-Apr-23 08:59N 32°01' W 080°54'0 0.0
2018-Apr-23 08:28N 32°01' W 080°54'0 0.0
2018-Apr-23 08:00N 32°01' W 080°54'0 0.0
2018-Apr-23 07:30N 32°01' W 080°54'0 0.0
2018-Apr-23 07:00N 32°01' W 080°54'0 0.0
2018-Apr-23 06:30N 32°01' W 080°54'0 0.0
2018-Apr-23 06:00N 32°01' W 080°54'0 0.0
2018-Apr-23 05:30N 32°01' W 080°54'0 0.0
2018-Apr-23 05:00N 32°01' W 080°54'0 0.0
2018-Apr-23 04:30N 32°01' W 080°54'0 0.0
2018-Apr-23 04:00N 32°01' W 080°54'0 0.0
2018-Apr-23 03:30N 32°01' W 080°54'0 0.0
2018-Apr-23 03:00N 32°01' W 080°54'0 0.0
2018-Apr-23 02:30N 32°01' W 080°54'0 0.0
2018-Apr-23 02:00N 32°01' W 080°54'0 0.0
2018-Apr-23 01:30N 32°01' W 080°54'0 0.0
2018-Apr-23 01:00N 32°01' W 080°54'0 0.0
2018-Apr-23 00:30N 32°01' W 080°54'0 0.0
2018-Apr-23 00:00N 32°01' W 080°54'0 0.0
2018-Apr-22 23:01N 32°01' W 080°54'0 0.0
2018-Apr-22 22:59N 32°01' W 080°54'0 0.0
2018-Apr-22 22:27N 32°01' W 080°54'0 0.0
2018-Apr-22 22:00N 32°01' W 080°54'0 0.0
2018-Apr-22 21:30N 32°01' W 080°54'0 0.0
2018-Apr-22 21:00N 32°01' W 080°54'0 0.0
2018-Apr-22 20:30N 32°01' W 080°54'0 0.0
2018-Apr-22 19:51N 32°01' W 080°54'0 0.0
2018-Apr-22 19:29N 32°01' W 080°54'0 0.0
2018-Apr-22 19:00N 32°01' W 080°54'0 0.0
2018-Apr-22 18:30N 32°01' W 080°54'0 0.0
2018-Apr-22 18:00N 32°01' W 080°54'0 0.0
2018-Apr-22 17:30N 32°01' W 080°54'0 0.0
2018-Apr-22 17:00N 32°01' W 080°54'0 0.0
2018-Apr-22 16:30N 32°01' W 080°54'0 0.0
2018-Apr-22 15:57N 32°01' W 080°54'0 0.0
2018-Apr-22 15:30N 32°01' W 080°54'0 0.0
2018-Apr-22 15:00N 32°01' W 080°54'0 0.0
2018-Apr-22 14:29N 32°01' W 080°54'0 0.0
2018-Apr-22 14:00N 32°01' W 080°54'0 0.0
2018-Apr-22 13:30N 32°01' W 080°54'0 0.0
2018-Apr-22 13:00N 32°01' W 080°54'0 0.0
2018-Apr-22 12:30N 32°01' W 080°54'0 0.0
2018-Apr-22 11:59N 32°01' W 080°54'0 0.7
2018-Apr-22 11:29N 32°01' W 080°53'0 0.0
2018-Apr-22 11:00N 32°01' W 080°53'0 0.0
2018-Apr-22 10:30N 32°01' W 080°53'0 0.0
2018-Apr-22 09:59N 32°01' W 080°53'0 0.0
2018-Apr-22 09:30N 32°01' W 080°53'0 0.0
2018-Apr-22 09:00N 32°01' W 080°53'0 0.0
2018-Apr-22 08:30N 32°01' W 080°53'0 0.0
2018-Apr-22 08:00N 32°01' W 080°53'0 0.0
2018-Apr-22 07:30N 32°01' W 080°53'0 0.0
2018-Apr-22 07:00N 32°01' W 080°53'0 0.0
2018-Apr-22 06:30N 32°01' W 080°53'0 0.0
2018-Apr-22 06:00N 32°01' W 080°53'0 0.0
2018-Apr-22 05:30N 32°01' W 080°53'0 0.0
2018-Apr-22 05:00N 32°01' W 080°53'0 0.0
2018-Apr-22 04:30N 32°01' W 080°53'0 0.0
2018-Apr-22 04:00N 32°01' W 080°53'0 0.0
2018-Apr-22 03:30N 32°01' W 080°53'0 0.0
2018-Apr-22 02:58N 32°01' W 080°53'0 0.0
2018-Apr-22 02:30N 32°01' W 080°53'0 0.0
2018-Apr-22 01:59N 32°01' W 080°53'0 0.0
2018-Apr-22 01:30N 32°01' W 080°53'0 0.0
2018-Apr-22 01:00N 32°01' W 080°53'0 0.0
2018-Apr-22 00:30N 32°01' W 080°53'0 0.0
2018-Apr-22 00:00N 32°01' W 080°53'0 0.0
2018-Apr-21 23:30N 32°01' W 080°53'0 0.0
2018-Apr-21 23:00N 32°01' W 080°53'0 0.0
2018-Apr-21 22:30N 32°01' W 080°53'0 0.0
2018-Apr-21 22:00N 32°01' W 080°53'0 0.0
2018-Apr-21 21:30N 32°01' W 080°53'0 0.0
2018-Apr-21 21:00N 32°01' W 080°53'0 0.0
2018-Apr-21 20:30N 32°01' W 080°53'0 0.0
2018-Apr-21 20:00N 32°01' W 080°53'0 0.0
2018-Apr-21 19:30N 32°01' W 080°53'0 0.0
2018-Apr-21 19:00N 32°01' W 080°53'0 0.0
2018-Apr-21 18:30N 32°01' W 080°53'0 0.0
2018-Apr-21 18:00N 32°01' W 080°53'0 0.0
2018-Apr-21 17:30N 32°01' W 080°53'0 0.0
2018-Apr-21 17:00N 32°01' W 080°53'0 0.0
2018-Apr-21 16:30N 32°01' W 080°53'0 0.0
2018-Apr-21 16:00N 32°01' W 080°53'0 0.0
2018-Apr-21 15:30N 32°01' W 080°53'0 0.5
2018-Apr-21 15:00N 32°01' W 080°54'0 0.2
2018-Apr-21 14:30N 32°01' W 080°53'0 0.1
2018-Apr-21 14:00N 32°01' W 080°53'0 0.3
2018-Apr-21 13:30N 32°01' W 080°53'0 0.1
2018-Apr-21 13:00N 32°01' W 080°53'0 0.0
2018-Apr-21 12:30N 32°01' W 080°53'0 0.0
2018-Apr-21 12:00N 32°01' W 080°53'0 0.0
2018-Apr-21 11:30N 32°01' W 080°53'0 0.0
2018-Apr-21 11:00N 32°01' W 080°53'0 0.0
2018-Apr-21 10:30N 32°01' W 080°53'0 0.0
2018-Apr-21 10:00N 32°01' W 080°53'0 0.0
2018-Apr-21 09:30N 32°01' W 080°53'0 0.0
2018-Apr-21 08:58N 32°01' W 080°53'0 0.0
2018-Apr-21 08:30N 32°01' W 080°53'0 0.0
2018-Apr-21 07:59N 32°01' W 080°53'0 0.0
2018-Apr-21 07:30N 32°01' W 080°53'0 0.0
2018-Apr-21 07:00N 32°01' W 080°53'0 0.0
2018-Apr-21 06:30N 32°01' W 080°53'0 0.0
2018-Apr-21 06:00N 32°01' W 080°53'0 0.0
2018-Apr-21 05:30N 32°01' W 080°53'0 0.0
2018-Apr-21 05:00N 32°01' W 080°53'0 0.0
2018-Apr-21 04:30N 32°01' W 080°53'2 4.8
2018-Apr-21 04:00N 32°02' W 080°51'4 7.0
2018-Apr-21 03:30N 31°60' W 080°47'2 3.8
2018-Apr-21 03:00N 32°01' W 080°49'2 3.6
2018-Apr-21 02:30N 32°02' W 080°50'1 1.9
2018-Apr-21 02:00N 32°02' W 080°51'1 1.8
2018-Apr-21 01:30N 32°01' W 080°52'1 1.2
2018-Apr-21 01:00N 32°01' W 080°53'0 0.8
2018-Apr-21 00:30N 32°01' W 080°53'2 4.2
2018-Apr-21 00:00N 32°02' W 080°51'2 4.8
2018-Apr-20 23:30N 32°02' W 080°54'3 6.0
2018-Apr-20 23:00N 32°04' W 080°57'3 6.6
2018-Apr-20 22:30N 32°06' W 080°60'3 6.8
2018-Apr-20 22:00N 32°05' W 081°04'2 4.9
2018-Apr-20 21:30N 32°06' W 081°01'3 6.0
2018-Apr-20 21:00N 32°04' W 080°58'3 6.1
2018-Apr-20 20:30N 32°02' W 080°55'3 6.4
2018-Apr-20 19:58N 32°02' W 080°51'2 4.3
2018-Apr-20 19:30N 32°01' W 080°53'0 0.0
2018-Apr-20 19:00N 32°01' W 080°53'0 0.0
2018-Apr-20 18:30N 32°01' W 080°53'0 0.0
2018-Apr-20 18:00N 32°01' W 080°53'0 0.0
2018-Apr-20 17:30N 32°01' W 080°53'0 0.0
2018-Apr-20 16:59N 32°01' W 080°53'0 0.0
2018-Apr-20 16:30N 32°01' W 080°53'0 0.0
2018-Apr-20 16:00N 32°01' W 080°53'0 0.0
2018-Apr-20 15:30N 32°01' W 080°53'0 0.0
2018-Apr-20 15:00N 32°01' W 080°53'0 0.0
2018-Apr-20 14:30N 32°01' W 080°53'0 0.0
2018-Apr-20 13:59N 32°01' W 080°53'0 0.0
2018-Apr-20 13:30N 32°01' W 080°53'0 0.0
2018-Apr-20 13:00N 32°01' W 080°53'0 0.0
2018-Apr-20 12:30N 32°01' W 080°53'0 0.0
2018-Apr-20 12:00N 32°01' W 080°53'0 0.0
2018-Apr-20 11:30N 32°01' W 080°53'0 0.0
2018-Apr-20 11:00N 32°01' W 080°53'0 0.0
2018-Apr-20 10:30N 32°01' W 080°53'0 0.0
2018-Apr-20 10:00N 32°01' W 080°53'0 0.0
2018-Apr-20 09:30N 32°01' W 080°53'0 0.0
2018-Apr-20 09:00N 32°01' W 080°53'0 0.0
2018-Apr-20 08:30N 32°01' W 080°53'0 0.0
2018-Apr-20 08:00N 32°01' W 080°53'0 0.0
2018-Apr-20 07:30N 32°01' W 080°53'0 0.0
2018-Apr-20 07:00N 32°01' W 080°53'0 0.0
2018-Apr-20 06:30N 32°01' W 080°53'0 0.0
2018-Apr-20 06:00N 32°01' W 080°53'0 0.0
2018-Apr-20 05:30N 32°01' W 080°53'0 0.0
2018-Apr-20 05:00N 32°01' W 080°53'0 0.0
2018-Apr-20 04:30N 32°01' W 080°53'0 0.0
2018-Apr-20 04:00N 32°01' W 080°53'0 0.0
2018-Apr-20 03:30N 32°01' W 080°53'0 0.0
2018-Apr-20 03:00N 32°01' W 080°53'0 0.0
2018-Apr-20 02:30N 32°01' W 080°53'0 0.0
2018-Apr-20 02:00N 32°01' W 080°53'0 0.0
2018-Apr-20 01:30N 32°01' W 080°53'0 0.0
2018-Apr-20 01:00N 32°01' W 080°53'0 0.0
2018-Apr-20 00:30N 32°01' W 080°53'0 0.0
2018-Apr-20 00:00N 32°01' W 080°53'0 0.0
2018-Apr-19 23:30N 32°01' W 080°53'0 0.0
2018-Apr-19 23:00N 32°01' W 080°53'0 0.0
2018-Apr-19 22:30N 32°01' W 080°53'0 0.0
2018-Apr-19 22:00N 32°01' W 080°53'0 0.0
2018-Apr-19 21:30N 32°01' W 080°53'0 0.0
2018-Apr-19 21:00N 32°01' W 080°53'0 0.0
2018-Apr-19 20:30N 32°01' W 080°53'0 0.0
2018-Apr-19 20:00N 32°01' W 080°53'0 0.0
2018-Apr-19 19:30N 32°01' W 080°53'0 0.0
2018-Apr-19 19:00N 32°01' W 080°53'0 0.1
2018-Apr-19 18:30N 32°01' W 080°53'0 0.0
2018-Apr-19 18:00N 32°01' W 080°53'0 0.0
2018-Apr-19 17:30N 32°01' W 080°53'0 0.0
2018-Apr-19 17:00N 32°01' W 080°53'0 0.0
2018-Apr-19 16:30N 32°01' W 080°53'0 0.0
2018-Apr-19 16:00N 32°01' W 080°53'2 3.8
2018-Apr-19 15:30N 32°02' W 080°51'2 3.7
2018-Apr-19 15:00N 32°02' W 080°49'0 0.3
2018-Apr-19 14:30N 32°02' W 080°49'2 3.7
2018-Apr-19 14:00N 32°02' W 080°51'0 0.8
2018-Apr-19 13:30N 32°02' W 080°52'0 0.0
2018-Apr-19 13:00N 32°02' W 080°52'1 2.1
2018-Apr-19 12:24N 32°02' W 080°50'3 6.0
2018-Apr-19 11:59N 32°00' W 080°48'2 3.2
2018-Apr-19 11:30N 32°02' W 080°49'2 3.4
2018-Apr-19 11:00N 32°02' W 080°51'1 1.2
2018-Apr-19 10:30N 32°02' W 080°52'0 0.0
2018-Apr-19 09:59N 32°02' W 080°52'0 0.0
2018-Apr-19 09:30N 32°02' W 080°52'0 0.0
2018-Apr-19 09:00N 32°02' W 080°52'0 0.0
2018-Apr-19 08:30N 32°02' W 080°52'0 0.0
2018-Apr-19 07:59N 32°02' W 080°52'0 0.0
2018-Apr-19 07:28N 32°02' W 080°52'0 0.0
2018-Apr-19 06:59N 32°02' W 080°52'0 0.0
2018-Apr-19 06:30N 32°02' W 080°52'0 0.0
2018-Apr-19 06:00N 32°02' W 080°52'0 0.0
2018-Apr-19 05:30N 32°02' W 080°52'0 0.0
2018-Apr-19 05:00N 32°02' W 080°52'0 0.1
2018-Apr-19 04:30N 32°02' W 080°52'0 0.0
2018-Apr-19 04:00N 32°02' W 080°52'0 0.0
2018-Apr-19 03:30N 32°02' W 080°52'0 0.0
2018-Apr-19 02:59N 32°02' W 080°52'0 0.0
2018-Apr-19 02:30N 32°02' W 080°52'0 0.0
2018-Apr-19 02:00N 32°02' W 080°52'0 0.0
2018-Apr-19 01:28N 32°02' W 080°52'0 0.0
2018-Apr-19 01:00N 32°02' W 080°52'0 0.0
2018-Apr-19 00:30N 32°02' W 080°52'0 0.0
2018-Apr-19 00:00N 32°02' W 080°52'2 3.9
2018-Apr-18 23:30N 32°02' W 080°49'1 2.2
2018-Apr-18 23:00N 32°02' W 080°51'1 1.6
2018-Apr-18 22:30N 32°02' W 080°51'0 0.0
2018-Apr-18 22:00N 32°02' W 080°51'0 0.0
2018-Apr-18 20:50N 32°02' W 080°51'0 0.1
2018-Apr-18 19:01N 32°02' W 080°51'0 2.6
2018-Apr-18 19:00N 32°02' W 080°51'1 2.3
2018-Apr-18 18:30N 32°02' W 080°50'1 2.7
2018-Apr-18 18:00N 32°01' W 080°48'2 3.6
2018-Apr-18 17:30N 31°60' W 080°47'2 3.5
2018-Apr-18 16:56N 31°59' W 080°45'1 3.2
2018-Apr-18 16:30N 31°59' W 080°47'2 4.9
2018-Apr-18 16:00N 32°01' W 080°49'2 4.5
2018-Apr-18 15:30N 32°02' W 080°51'0 0.7
2018-Apr-18 15:00N 32°02' W 080°51'0 0.0
2018-Apr-18 14:30N 32°02' W 080°51'0 0.0
2018-Apr-18 14:00N 32°02' W 080°51'0 0.0
2018-Apr-18 13:30N 32°02' W 080°51'0 0.0
2018-Apr-18 13:00N 32°02' W 080°51'1 3.0
2018-Apr-18 12:30N 32°02' W 080°50'3 5.5
2018-Apr-18 12:00N 32°00' W 080°48'4 5.1
2018-Apr-18 11:18N 31°58' W 080°44'1 2.4
2018-Apr-18 10:59N 31°59' W 080°45'0 0.6
2018-Apr-18 10:30N 31°59' W 080°45'7 0.9
2018-Apr-18 03:04N 31°57' W 080°37'0 1.5
2018-Apr-18 02:59N 31°57' W 080°37'2 0.4
2018-Apr-17 21:35N 31°57' W 080°40'1 3.1
2018-Apr-17 21:14N 31°58' W 080°41'1 4.1
2018-Apr-17 21:00N 31°58' W 080°42'1 1.8
2018-Apr-17 20:13N 31°58' W 080°44'0 0.0
2018-Apr-17 19:06N 31°58' W 080°44'0 1.2
2018-Apr-17 19:00N 31°58' W 080°44'0 0.1
2018-Apr-17 18:05N 31°58' W 080°44'1 3.9
2018-Apr-17 17:55N 31°58' W 080°44'2 4.8
2018-Apr-17 17:30N 31°59' W 080°46'3 6.3
2018-Apr-17 17:00N 32°01' W 080°49'2 3.9
2018-Apr-17 16:30N 32°02' W 080°51'2 3.5
2018-Apr-17 15:58N 32°01' W 080°53'0 0.0
2018-Apr-17 15:30N 32°01' W 080°53'0 0.0
2018-Apr-17 14:56N 32°01' W 080°53'1 1.9
2018-Apr-17 14:25N 32°01' W 080°52'3 6.5
2018-Apr-17 14:00N 32°01' W 080°49'3 4.8
2018-Apr-17 13:27N 31°59' W 080°50'2 3.7
2018-Apr-17 12:58N 31°59' W 080°48'2 5.0
2018-Apr-17 12:30N 32°01' W 080°49'2 3.5
2018-Apr-17 12:00N 32°02' W 080°51'2 4.2
2018-Apr-17 11:30N 32°01' W 080°53'0 0.2
2018-Apr-17 11:00N 32°01' W 080°53'0 0.0
2018-Apr-17 10:30N 32°01' W 080°53'0 0.0
2018-Apr-17 10:00N 32°01' W 080°53'0 0.0
2018-Apr-17 09:30N 32°01' W 080°53'0 0.0
2018-Apr-17 09:00N 32°01' W 080°53'0 0.0
2018-Apr-17 08:30N 32°01' W 080°53'0 0.0
2018-Apr-17 07:57N 32°01' W 080°53'0 0.0
2018-Apr-17 07:30N 32°01' W 080°53'0 0.0
2018-Apr-17 07:00N 32°01' W 080°53'0 0.0
2018-Apr-17 06:30N 32°01' W 080°53'0 0.0
2018-Apr-17 06:00N 32°01' W 080°53'0 0.0
2018-Apr-17 05:30N 32°01' W 080°53'0 0.0
2018-Apr-17 05:00N 32°01' W 080°53'0 0.0
2018-Apr-17 04:30N 32°01' W 080°53'0 0.0
2018-Apr-17 04:00N 32°01' W 080°53'0 0.0
2018-Apr-17 03:20N 32°01' W 080°53'0 0.0
2018-Apr-17 03:00N 32°01' W 080°53'0 0.0
2018-Apr-17 02:30N 32°01' W 080°53'0 0.0
2018-Apr-17 02:00N 32°01' W 080°53'0 0.0
2018-Apr-17 01:30N 32°01' W 080°53'0 0.0
2018-Apr-17 01:00N 32°01' W 080°53'0 0.0
2018-Apr-17 00:30N 32°01' W 080°53'0 0.0
2018-Apr-17 00:00N 32°01' W 080°53'0 0.0
2018-Apr-16 23:30N 32°01' W 080°53'0 0.0
2018-Apr-16 23:00N 32°01' W 080°53'0 0.0
2018-Apr-16 22:28N 32°01' W 080°53'0 0.0
2018-Apr-16 22:00N 32°01' W 080°53'0 0.0
2018-Apr-16 21:30N 32°01' W 080°53'0 0.0
2018-Apr-16 21:00N 32°01' W 080°53'0 0.0
2018-Apr-16 20:30N 32°01' W 080°53'0 0.0
2018-Apr-16 19:58N 32°01' W 080°53'0 0.0
2018-Apr-16 19:29N 32°01' W 080°53'0 0.0
2018-Apr-16 19:00N 32°01' W 080°53'0 0.0
2018-Apr-16 18:29N 32°01' W 080°53'0 0.0
2018-Apr-16 17:55N 32°01' W 080°53'0 0.0
2018-Apr-16 17:30N 32°01' W 080°53'0 0.0
2018-Apr-16 16:59N 32°01' W 080°53'0 0.0
2018-Apr-16 16:30N 32°01' W 080°53'0 0.0
2018-Apr-16 16:00N 32°01' W 080°53'0 0.0
2018-Apr-16 15:28N 32°01' W 080°53'0 0.0
2018-Apr-16 15:00N 32°01' W 080°53'0 0.0
2018-Apr-16 14:26N 32°01' W 080°53'0 0.0
2018-Apr-16 13:59N 32°01' W 080°53'0 0.0
2018-Apr-16 13:29N 32°01' W 080°53'0 0.0
2018-Apr-16 12:50N 32°01' W 080°53'0 0.0
2018-Apr-16 12:30N 32°01' W 080°53'0 0.0
2018-Apr-16 12:00N 32°01' W 080°53'0 0.0
2018-Apr-16 11:30N 32°01' W 080°53'0 0.0
2018-Apr-16 11:00N 32°01' W 080°53'0 0.0
2018-Apr-16 10:30N 32°01' W 080°53'0 0.0
2018-Apr-16 10:00N 32°01' W 080°53'0 0.0
2018-Apr-16 09:30N 32°01' W 080°53'0 0.0
2018-Apr-16 09:00N 32°01' W 080°53'0 0.0
2018-Apr-16 08:30N 32°01' W 080°53'0 0.0
2018-Apr-16 08:00N 32°01' W 080°53'0 0.0
2018-Apr-16 07:30N 32°01' W 080°53'0 0.0
2018-Apr-16 06:59N 32°01' W 080°53'0 0.2
2018-Apr-16 06:30N 32°01' W 080°53'0 0.2
2018-Apr-16 05:59N 32°01' W 080°53'0 0.0
2018-Apr-16 05:30N 32°01' W 080°53'0 0.0
2018-Apr-16 04:59N 32°01' W 080°53'0 0.0
2018-Apr-16 04:29N 32°01' W 080°53'0 0.0
2018-Apr-16 03:59N 32°01' W 080°53'0 0.0
2018-Apr-16 03:30N 32°01' W 080°53'0 0.0
2018-Apr-16 03:00N 32°01' W 080°53'0 0.0
2018-Apr-16 02:30N 32°01' W 080°53'0 0.0
2018-Apr-16 01:58N 32°01' W 080°53'0 0.0
2018-Apr-16 01:30N 32°01' W 080°53'0 0.0
2018-Apr-16 01:00N 32°01' W 080°53'0 0.0
2018-Apr-16 00:30N 32°01' W 080°53'0 0.0
2018-Apr-15 23:59N 32°01' W 080°53'0 0.0
2018-Apr-15 23:28N 32°01' W 080°53'0 0.0
2018-Apr-15 23:00N 32°01' W 080°53'0 0.0
2018-Apr-15 22:30N 32°01' W 080°53'0 0.0
2018-Apr-15 21:59N 32°01' W 080°53'0 0.0
2018-Apr-15 21:30N 32°01' W 080°53'0 0.0
2018-Apr-15 21:00N 32°01' W 080°53'0 0.0
2018-Apr-15 20:30N 32°01' W 080°53'0 0.0
2018-Apr-15 20:00N 32°01' W 080°53'0 0.0
2018-Apr-15 19:28N 32°01' W 080°53'0 0.0
2018-Apr-15 19:00N 32°01' W 080°53'0 0.0
2018-Apr-15 18:30N 32°01' W 080°53'0 0.0
2018-Apr-15 17:59N 32°01' W 080°53'0 0.0
2018-Apr-15 17:29N 32°01' W 080°53'0 0.0
2018-Apr-15 17:00N 32°01' W 080°53'0 0.0
2018-Apr-15 16:30N 32°01' W 080°53'0 0.0
2018-Apr-15 15:17N 32°01' W 080°53'0 0.0
2018-Apr-15 14:47N 32°01' W 080°53'0 0.0
2018-Apr-15 14:30N 32°01' W 080°53'0 0.0
2018-Apr-15 13:58N 32°01' W 080°53'0 0.0
2018-Apr-15 13:30N 32°01' W 080°53'0 0.0
2018-Apr-15 12:59N 32°01' W 080°53'0 0.0
2018-Apr-15 12:30N 32°01' W 080°53'0 0.0
2018-Apr-15 12:00N 32°01' W 080°53'0 0.0
2018-Apr-15 11:30N 32°01' W 080°53'0 0.0
2018-Apr-15 11:00N 32°01' W 080°53'0 0.0
2018-Apr-15 10:30N 32°01' W 080°53'0 0.0
2018-Apr-15 10:00N 32°01' W 080°53'0 0.0
2018-Apr-15 09:30N 32°01' W 080°53'0 0.3
2018-Apr-15 09:00N 32°01' W 080°53'1 2.7
2018-Apr-15 08:30N 32°01' W 080°52'2 4.1
2018-Apr-15 08:00N 32°02' W 080°49'3 5.8
2018-Apr-15 07:30N 31°59' W 080°48'1 1.3
2018-Apr-15 07:00N 31°59' W 080°48'1 1.8
2018-Apr-15 06:30N 31°59' W 080°49'  

Dump ship's entire track history